Time;durP1;ratioP1;P1;durP2;ratioP2;P2;SDS_P1;SDS_P2;PMS_P1;PMS_P2;Temp;Humidity;BMP_temperature;BMP_pressure;BME280_temperature;BME280_humidity;BME280_pressure;Samples;Min_cycle;Max_cycle;Signal;HPM_P1;HPM_P2
2022/10/16 00:01:29;;;;;;;6.75;3.60;;;;;;;5.05;68.91;101749.77;1751302;80;21208;-50
2022/10/16 00:03:57;;;;;;;11.40;8.00;;;;;;;5.01;69.13;101747.72;1750308;80;21522;-49
2022/10/16 00:06:25;;;;;;;9.80;4.05;;;;;;;4.98;69.21;101755.19;1752969;81;21101;-48
2022/10/16 00:08:53;;;;;;;20.72;8.30;;;;;;;5.01;69.20;101749.87;1754813;81;21652;-50
2022/10/16 00:11:23;;;;;;;12.88;7.05;;;;;;;5.03;69.17;101750.66;1753935;80;21104;-49
2022/10/16 00:13:54;;;;;;;8.05;3.15;;;;;;;5.03;69.10;101753.73;1754579;81;21049;-49
2022/10/16 00:16:20;;;;;;;12.58;7.30;;;;;;;4.98;69.07;101752.58;1747746;80;21569;-50
2022/10/16 00:18:46;;;;;;;13.22;7.33;;;;;;;4.93;68.96;101751.05;1758235;81;21589;-50
2022/10/16 00:21:20;;;;;;;8.95;3.67;;;;;;;4.86;68.95;101749.53;1755708;81;21595;-51
2022/10/16 00:23:49;;;;;;;11.30;6.95;;;;;;;4.83;68.91;101746.59;1752460;79;21113;-50
2022/10/16 00:26:16;;;;;;;12.35;6.90;;;;;;;4.87;68.92;101752.08;1722839;79;21146;-49
2022/10/16 00:28:46;;;;;;;9.78;5.17;;;;;;;4.91;69.06;101748.91;1758043;81;21591;-49
2022/10/16 00:31:14;;;;;;;12.28;6.80;;;;;;;4.93;69.35;101753.19;1748590;79;21555;-49
2022/10/16 00:33:40;;;;;;;16.70;7.50;;;;;;;4.92;69.43;101752.78;1760242;81;21106;-49
2022/10/16 00:36:10;;;;;;;8.40;3.70;;;;;;;4.86;69.23;101755.62;1757610;81;21198;-50
2022/10/16 00:38:37;;;;;;;11.55;6.53;;;;;;;4.82;69.36;101759.22;1698918;81;21222;-50
2022/10/16 00:41:06;;;;;;;7.92;2.98;;;;;;;4.76;69.48;101757.68;1756143;79;21031;-49
2022/10/16 00:43:42;;;;;;;11.38;6.30;;;;;;;4.77;69.63;101758.52;1757470;80;21146;-49
2022/10/16 00:46:22;;;;;;;11.43;6.78;;;;;;;4.82;69.47;101764.44;1757801;81;21097;-50
2022/10/16 00:49:05;;;;;;;9.40;4.45;;;;;;;4.83;69.35;101760.47;1756604;81;21024;-49
2022/10/16 00:51:39;;;;;;;11.00;6.55;;;;;;;4.82;69.31;101762.70;1758010;81;21294;-50
2022/10/16 00:54:14;;;;;;;7.22;2.62;;;;;;;4.75;69.29;101766.39;1749710;81;21126;-49
2022/10/16 00:56:41;;;;;;;6.62;3.52;;;;;;;4.70;69.19;101767.46;1756047;81;21051;-50
2022/10/16 00:59:24;;;;;;;10.68;6.40;;;;;;;4.64;69.32;101771.14;1748838;81;21108;-53
2022/10/16 01:01:51;;;;;;;8.25;3.45;;;;;;;4.59;69.32;101771.28;1751219;81;21065;-50
2022/10/16 01:04:18;;;;;;;6.85;3.00;;;;;;;4.58;69.12;101770.87;1757105;79;22267;-50
2022/10/16 01:07:13;;;;;;;12.78;5.85;;;;;;;4.61;68.98;101769.92;1756976;81;21091;-49
2022/10/16 01:10:04;;;;;;;7.28;2.62;;;;;;;4.61;68.93;101780.36;1755252;81;21055;-49
2022/10/16 01:12:57;;;;;;;9.43;6.40;;;;;;;4.55;69.32;101774.88;1755807;81;21110;-49
2022/10/16 01:15:51;;;;;;;6.42;2.83;;;;;;;4.51;69.63;101775.89;1718630;79;21102;-49
2022/10/16 01:18:40;;;;;;;8.48;2.75;;;;;;;4.50;69.87;101774.62;1728334;81;22062;-50
2022/10/16 01:21:16;;;;;;;6.50;3.00;;;;;;;4.43;69.85;101776.13;1753726;81;21054;-49
2022/10/16 01:23:57;;;;;;;6.65;3.20;;;;;;;4.41;69.68;101776.63;1753477;79;21124;-50
2022/10/16 01:27:07;;;;;;;11.12;6.60;;;;;;;4.45;69.46;101772.16;1754245;81;21504;-48
2022/10/16 01:29:54;;;;;;;6.87;2.95;;;;;;;4.46;69.56;101779.94;1705286;81;21032;-51
2022/10/16 01:32:52;;;;;;;6.35;2.50;;;;;;;4.43;69.93;101786.55;1754216;79;21117;-50
2022/10/16 01:35:30;;;;;;;7.58;2.40;;;;;;;4.40;70.29;101781.88;1753442;81;21043;-50
2022/10/16 01:38:07;;;;;;;6.67;3.05;;;;;;;4.38;70.58;101791.52;1752032;81;21090;-50
2022/10/16 01:40:36;;;;;;;9.75;4.17;;;;;;;4.34;70.79;101788.59;1759747;81;21003;-50
2022/10/16 01:43:06;;;;;;;13.38;5.95;;;;;;;4.38;70.70;101788.91;1752695;81;21485;-50
2022/10/16 01:45:34;;;;;;;6.42;3.08;;;;;;;4.40;70.47;101789.24;1754111;79;21741;-49
2022/10/16 01:48:03;;;;;;;11.05;6.28;;;;;;;4.39;70.46;101792.77;1761909;81;21023;-50
2022/10/16 01:50:33;;;;;;;7.80;3.35;;;;;;;4.36;70.49;101789.41;1758758;80;21051;-49
2022/10/16 01:53:00;;;;;;;9.45;5.40;;;;;;;4.30;70.26;101798.72;1751185;81;21523;-49
2022/10/16 01:55:33;;;;;;;6.80;2.98;;;;;;;4.22;70.28;101790.70;1752996;81;21031;-49
2022/10/16 01:58:02;;;;;;;9.93;4.95;;;;;;;4.18;70.40;101799.48;1748302;81;20932;-49
2022/10/16 02:00:29;;;;;;;6.78;2.70;;;;;;;4.15;70.60;101798.27;1754420;79;20928;-49
2022/10/16 02:02:55;;;;;;;8.45;3.42;;;;;;;4.18;70.54;101797.34;1755432;81;20912;-49
2022/10/16 02:05:36;;;;;;;5.95;2.50;;;;;;;4.24;70.44;101799.31;1753951;81;21063;-50
2022/10/16 02:08:03;;;;;;;8.93;3.22;;;;;;;4.30;70.71;101801.32;1761287;81;21752;-49
2022/10/16 02:10:30;;;;;;;8.10;5.22;;;;;;;4.32;71.24;101802.12;1760937;81;21075;-50
2022/10/16 02:13:10;;;;;;;6.05;2.55;;;;;;;4.33;71.59;101807.28;1752415;81;21601;-50
2022/10/16 02:15:37;;;;;;;7.85;5.22;;;;;;;4.31;71.73;101804.34;1709508;80;21071;-50
2022/10/16 02:18:05;;;;;;;6.35;3.02;;;;;;;4.26;71.69;101804.02;1759313;81;21083;-50
2022/10/16 02:20:39;;;;;;;4.60;1.77;;;;;;;4.24;71.46;101807.59;1709578;83;21518;-50
2022/10/16 02:23:05;;;;;;;7.35;4.20;;;;;;;4.26;71.12;101810.98;1758834;81;21243;-50
2022/10/16 02:25:38;;;;;;;5.15;1.95;;;;;;;4.26;70.91;101808.38;1763683;81;21157;-50
2022/10/16 02:28:08;;;;;;;6.37;2.42;;;;;;;4.23;70.93;101808.02;1758202;80;21031;-50
2022/10/16 02:30:51;;;;;;;5.00;1.85;;;;;;;4.19;71.18;101808.18;1749935;81;21094;-50
2022/10/16 02:33:18;;;;;;;10.28;5.05;;;;;;;4.15;71.25;101810.45;1693725;82;21102;-51
2022/10/16 02:35:46;;;;;;;8.33;3.12;;;;;;;4.09;71.39;101810.20;1687189;84;21176;-50
2022/10/16 02:38:12;;;;;;;7.47;2.90;;;;;;;4.08;71.44;101813.69;1696267;83;22318;-50
2022/10/16 02:40:41;;;;;;;7.90;2.80;;;;;;;4.11;71.13;101812.30;1696502;83;21126;-50
2022/10/16 02:43:07;;;;;;;9.80;4.55;;;;;;;4.10;71.03;101815.80;1710182;83;21079;-50
2022/10/16 02:45:34;;;;;;;5.12;2.47;;;;;;;4.05;71.01;101819.87;1711793;83;21597;-50
2022/10/16 02:48:02;;;;;;;8.78;5.35;;;;;;;4.01;71.08;101821.30;1690320;82;21888;-50
2022/10/16 02:50:28;;;;;;;8.45;2.58;;;;;;;3.96;71.15;101822.72;1710540;83;21067;-50
2022/10/16 02:52:55;;;;;;;6.10;2.02;;;;;;;3.93;71.20;101825.41;1703882;82;21053;-50
2022/10/16 02:55:23;;;;;;;11.18;4.40;;;;;;;3.85;71.33;101823.48;1713622;83;21036;-50
2022/10/16 02:57:51;;;;;;;4.25;1.80;;;;;;;3.86;71.36;101829.95;1713666;82;21075;-50
2022/10/16 03:00:19;;;;;;;7.20;4.33;;;;;;;3.92;71.24;101830.23;1710716;83;21235;-50
2022/10/16 03:02:46;;;;;;;4.60;2.15;;;;;;;3.97;71.21;101830.08;1711542;82;21566;-50
2022/10/16 03:05:13;;;;;;;8.38;4.67;;;;;;;3.97;71.21;101838.77;1709166;83;21016;-50
2022/10/16 03:07:41;;;;;;;6.20;2.17;;;;;;;3.95;71.21;101839.70;1759389;81;21587;-50
2022/10/16 03:10:08;;;;;;;5.80;2.62;;;;;;;3.93;71.17;101842.80;1760556;81;21555;-49
2022/10/16 03:12:36;;;;;;;8.15;3.77;;;;;;;3.86;71.12;101844.27;1758880;81;21123;-49
2022/10/16 03:15:04;;;;;;;8.78;5.30;;;;;;;3.80;71.16;101839.69;1754602;79;21675;-49
2022/10/16 03:17:32;;;;;;;9.43;3.37;;;;;;;3.76;71.21;101849.34;1750030;81;21062;-50
2022/10/16 03:20:00;;;;;;;8.03;4.92;;;;;;;3.79;71.17;101845.34;1719894;82;21493;-50
2022/10/16 03:22:29;;;;;;;7.33;2.40;;;;;;;3.82;70.96;101846.57;1725371;82;21070;-50
2022/10/16 03:24:55;;;;;;;11.18;5.33;;;;;;;3.82;70.77;101845.27;1729394;82;21272;-50
2022/10/16 03:27:22;;;;;;;5.33;2.17;;;;;;;3.79;70.75;101849.71;1724349;82;21055;-50
2022/10/16 03:29:48;;;;;;;9.50;4.30;;;;;;;3.75;70.86;101851.55;1727275;82;21106;-50
2022/10/16 03:32:15;;;;;;;5.90;2.60;;;;;;;3.71;71.00;101857.72;1723778;82;21093;-50
2022/10/16 03:34:42;;;;;;;6.70;2.50;;;;;;;3.66;71.08;101860.91;1724893;82;21089;-50
2022/10/16 03:37:09;;;;;;;6.12;2.33;;;;;;;3.60;71.12;101858.03;1706916;82;21145;-50
2022/10/16 03:39:35;;;;;;;4.75;1.98;;;;;;;3.59;71.06;101853.71;1707098;83;21051;-50
2022/10/16 03:42:02;;;;;;;5.70;2.52;;;;;;;3.64;70.98;101857.50;1707523;82;21054;-50
2022/10/16 03:44:29;;;;;;;8.40;4.55;;;;;;;3.65;71.02;101860.52;1700212;82;21104;-50
2022/10/16 03:46:56;;;;;;;7.25;2.87;;;;;;;3.64;71.16;101863.55;1701078;82;21109;-50
2022/10/16 03:49:23;;;;;;;6.75;3.65;;;;;;;3.61;71.22;101865.38;1696115;83;21208;-50
2022/10/16 03:51:52;;;;;;;11.25;4.80;;;;;;;3.56;71.26;101868.10;1696833;82;21338;-50
2022/10/16 03:54:18;;;;;;;5.70;2.22;;;;;;;3.49;71.27;101871.31;1698923;83;21445;-49
2022/10/16 03:56:44;;;;;;;5.85;2.08;;;;;;;3.47;71.35;101871.81;1718533;82;21173;-50
2022/10/16 03:59:11;;;;;;;10.23;4.30;;;;;;;3.48;71.23;101872.23;1712926;83;21004;-49
2022/10/16 04:01:38;;;;;;;5.22;2.30;;;;;;;3.48;71.17;101864.84;1706523;82;21293;-49
2022/10/16 04:04:04;;;;;;;8.80;4.83;;;;;;;3.45;71.28;101872.77;1691754;83;21580;-49
2022/10/16 04:06:32;;;;;;;6.78;2.58;;;;;;;3.42;71.42;101864.58;1702180;82;21122;-50
2022/10/16 04:08:59;;;;;;;5.37;2.33;;;;;;;3.39;71.36;101869.85;1715207;82;21011;-51
2022/10/16 04:11:26;;;;;;;5.03;2.20;;;;;;;3.36;71.36;101862.12;1713556;82;21121;-51
2022/10/16 04:13:52;;;;;;;5.00;1.95;;;;;;;3.31;71.34;101855.77;1726467;82;21238;-50
2022/10/16 04:16:18;;;;;;;5.35;2.30;;;;;;;3.33;71.25;101859.63;1712063;81;20994;-51
2022/10/16 04:18:45;;;;;;;7.50;4.60;;;;;;;3.38;71.13;101859.48;1744367;81;21065;-51
2022/10/16 04:21:13;;;;;;;5.37;2.08;;;;;;;3.40;71.04;101859.87;1750761;80;21478;-50
2022/10/16 04:23:42;;;;;;;6.22;2.27;;;;;;;3.38;71.19;101864.27;1755140;81;21581;-50
2022/10/16 04:26:10;;;;;;;9.28;5.35;;;;;;;3.37;71.31;101872.11;1735861;80;21251;-50
2022/10/16 04:28:36;;;;;;;8.70;3.37;;;;;;;3.36;71.48;101872.53;1757835;81;21590;-50
2022/10/16 04:31:06;;;;;;;7.55;3.00;;;;;;;3.33;71.53;101877.38;1757580;80;21004;-52
2022/10/16 04:33:33;;;;;;;6.65;2.92;;;;;;;3.31;71.64;101877.87;1761081;80;21103;-50
2022/10/16 07:33:44;;;;;;;11.12;7.30;;;;;;;8.57;65.33;102031.83;1748621;80;21047;-49
2022/10/16 07:36:12;;;;;;;13.60;8.13;;;;;;;8.69;64.99;102023.86;1746463;80;21143;-53
2022/10/16 07:38:40;;;;;;;13.88;8.20;;;;;;;8.77;64.25;102034.86;1757050;80;20980;-49
2022/10/16 07:41:07;;;;;;;11.65;7.15;;;;;;;8.85;64.09;102032.73;1750625;81;21035;-49
2022/10/16 07:43:35;;;;;;;11.22;7.40;;;;;;;8.92;63.87;102035.94;1732626;81;21558;-49
2022/10/16 07:46:02;;;;;;;15.75;7.90;;;;;;;8.98;63.06;102036.09;1748671;80;21545;-49
2022/10/16 07:48:33;;;;;;;12.73;8.33;;;;;;;9.01;62.82;102034.20;1740749;81;21346;-49
2022/10/16 07:51:02;;;;;;;19.62;8.28;;;;;;;9.08;62.28;102043.48;1757027;80;21487;-49
2022/10/16 07:53:29;;;;;;;12.15;8.48;;;;;;;9.15;62.33;102045.36;1739743;81;21055;-49
2022/10/16 07:56:04;;;;;;;13.10;8.70;;;;;;;9.25;62.24;102037.43;1754697;80;21495;-49
2022/10/16 07:58:32;;;;;;;15.72;9.90;;;;;;;9.39;61.56;102031.50;1756456;80;21036;-49
2022/10/16 08:00:59;;;;;;;12.73;8.43;;;;;;;9.53;61.22;102029.97;1754186;80;21499;-49
2022/10/16 08:03:25;;;;;;;14.13;8.40;;;;;;;9.61;61.01;102033.08;1752801;80;21581;-49
2022/10/16 08:05:54;;;;;;;13.70;8.68;;;;;;;9.70;60.88;102028.69;1751963;80;21004;-49
2022/10/16 08:08:20;;;;;;;17.62;8.43;;;;;;;9.78;60.89;102033.07;1758242;81;21185;-49
2022/10/16 08:10:47;;;;;;;10.98;7.10;;;;;;;9.89;60.81;102030.39;1746674;80;21593;-48
2022/10/16 08:13:15;;;;;;;14.78;7.00;;;;;;;9.97;60.52;102026.44;1749301;81;21075;-49
2022/10/16 08:15:45;;;;;;;10.13;6.53;;;;;;;10.07;60.19;102023.31;1747079;81;21036;-48
2022/10/16 08:18:13;;;;;;;10.05;6.17;;;;;;;10.13;60.32;102012.02;1755610;80;21115;-49
2022/10/16 08:20:41;;;;;;;12.00;6.47;;;;;;;10.19;60.03;102013.02;1747923;81;21534;-48
2022/10/16 08:23:11;;;;;;;12.53;6.28;;;;;;;10.33;59.51;102022.00;1743398;80;21544;-49
2022/10/16 08:25:39;;;;;;;10.23;6.67;;;;;;;10.44;59.39;102017.47;1747026;81;21148;-48
2022/10/16 08:28:08;;;;;;;11.68;6.47;;;;;;;10.54;59.29;102022.63;1755329;80;21111;-49
2022/10/16 08:30:35;;;;;;;11.40;6.33;;;;;;;10.59;58.52;102024.53;1756185;80;21043;-48
2022/10/16 08:33:01;;;;;;;9.83;6.10;;;;;;;10.67;56.94;102021.50;1729916;80;21011;-51
2022/10/16 08:35:29;;;;;;;8.08;4.72;;;;;;;10.69;56.57;102017.87;1746862;81;21047;-49
2022/10/16 08:37:56;;;;;;;10.40;5.60;;;;;;;10.73;56.29;102011.97;1755826;80;21538;-49
2022/10/16 08:40:28;;;;;;;10.55;5.35;;;;;;;10.77;55.88;102008.22;1757255;81;21039;-49
2022/10/16 08:43:22;;;;;;;11.95;5.22;;;;;;;10.84;54.88;102009.56;1742153;81;21051;-49
2022/10/16 08:46:30;;;;;;;9.10;4.12;;;;;;;10.92;54.64;102012.63;1728846;81;21016;-49
2022/10/16 08:48:59;;;;;;;7.22;3.55;;;;;;;11.05;54.09;102015.92;1757641;81;21043;-49
2022/10/16 08:51:36;;;;;;;6.53;3.35;;;;;;;11.15;53.26;102020.58;1756664;81;21310;-49
2022/10/16 08:54:08;;;;;;;6.75;3.92;;;;;;;11.22;52.36;102030.30;1756074;80;21574;-53
2022/10/16 08:56:37;;;;;;;9.70;4.80;;;;;;;11.29;51.37;102022.41;1707229;82;21481;-49
2022/10/16 08:59:04;;;;;;;7.70;4.47;;;;;;;11.33;51.09;102023.96;1686402;84;21572;-48
2022/10/16 09:01:41;;;;;;;5.80;3.70;;;;;;;11.39;50.47;102017.95;1700346;83;21069;-48
2022/10/16 09:04:44;;;;;;;6.30;3.08;;;;;;;11.45;50.67;102012.34;1695228;83;21256;-48
2022/10/16 09:07:28;;;;;;;7.80;3.25;;;;;;;11.55;50.10;102017.45;1694629;83;21074;-48
2022/10/16 09:10:05;;;;;;;8.38;3.58;;;;;;;11.63;50.02;102025.77;1707310;82;22233;-48
2022/10/16 09:12:42;;;;;;;7.78;3.58;;;;;;;11.73;49.75;102025.22;1702508;83;21152;-48
2022/10/16 09:15:41;;;;;;;6.95;3.60;;;;;;;11.82;49.80;102022.89;1694780;84;21059;-48
2022/10/16 09:18:59;;;;;;;8.53;3.62;;;;;;;11.88;49.12;102021.22;1702127;82;21224;-48
2022/10/16 09:21:30;;;;;;;10.13;3.27;;;;;;;11.95;49.15;102020.39;1677279;84;21041;-48
2022/10/16 09:24:00;;;;;;;6.37;2.87;;;;;;;12.02;49.14;102011.19;1695273;84;21614;-48
2022/10/16 09:26:27;;;;;;;5.33;2.50;;;;;;;12.05;47.73;102014.97;1658155;84;21146;-49
2022/10/16 09:28:53;;;;;;;6.10;2.95;;;;;;;12.11;47.43;102007.62;1708716;84;21071;-48
2022/10/16 09:31:22;;;;;;;6.75;2.80;;;;;;;12.12;46.96;102011.94;1708611;82;21240;-48
2022/10/16 09:33:54;;;;;;;5.87;2.37;;;;;;;12.14;46.68;102015.32;1709879;83;21300;-48
2022/10/16 09:36:21;;;;;;;6.08;2.62;;;;;;;12.17;45.91;102015.14;1711413;82;21573;-48
2022/10/16 09:38:50;;;;;;;5.65;2.30;;;;;;;12.19;45.86;102009.33;1713462;83;21086;-48
2022/10/16 09:41:21;;;;;;;5.83;2.27;;;;;;;12.22;46.11;102003.38;1707704;82;21483;-52
2022/10/16 09:44:01;;;;;;;6.92;2.40;;;;;;;12.28;45.63;102011.39;1713597;83;21700;-48
2022/10/16 09:46:31;;;;;;;6.58;2.15;;;;;;;12.34;45.24;102008.83;1701344;83;21041;-48
2022/10/16 09:49:00;;;;;;;5.05;2.50;;;;;;;12.42;45.32;102012.72;1697789;82;21130;-48
2022/10/16 09:51:36;;;;;;;4.20;1.70;;;;;;;12.49;44.38;102001.75;1712801;83;21136;-48
2022/10/16 09:54:13;;;;;;;6.92;2.95;;;;;;;12.54;44.76;102004.95;1708394;82;21176;-48
2022/10/16 09:56:45;;;;;;;5.33;2.60;;;;;;;12.60;44.96;102004.58;1685898;85;21030;-48
2022/10/16 09:59:20;;;;;;;7.10;3.22;;;;;;;12.67;44.72;102003.24;1695038;82;21084;-48
2022/10/16 10:01:54;;;;;;;8.83;2.87;;;;;;;12.75;44.99;101994.84;1698379;83;21593;-49
2022/10/16 10:04:23;;;;;;;5.67;2.65;;;;;;;12.80;44.62;101989.63;1705242;83;21065;-48
2022/10/16 10:06:55;;;;;;;5.97;2.95;;;;;;;12.86;44.50;101991.51;1692172;83;21167;-49
2022/10/16 10:09:30;;;;;;;6.12;2.35;;;;;;;12.90;44.36;101992.54;1708338;82;21139;-52
2022/10/16 10:12:05;;;;;;;7.70;2.80;;;;;;;12.95;44.71;101981.68;1675270;85;22749;-48
2022/10/16 10:14:41;;;;;;;8.35;2.50;;;;;;;13.03;44.85;101977.20;1697367;82;21067;-48
2022/10/16 10:17:21;;;;;;;6.15;2.77;;;;;;;13.09;44.79;101977.65;1717164;83;21039;-49
2022/10/16 10:20:27;;;;;;;9.38;3.00;;;;;;;13.13;44.98;101965.08;1755310;79;21158;-48
2022/10/16 10:22:55;;;;;;;6.95;3.50;;;;;;;13.14;44.85;101966.78;1756770;81;21130;-49
2022/10/16 10:25:43;;;;;;;6.03;2.95;;;;;;;13.16;45.05;101964.43;1744506;81;21091;-48
2022/10/16 10:28:27;;;;;;;6.40;3.25;;;;;;;13.16;45.12;101971.04;1765589;81;21114;-48
2022/10/16 10:31:03;;;;;;;7.28;3.95;;;;;;;13.19;44.84;101970.81;1751456;80;22160;-48
2022/10/16 10:36:25;;;;;;;6.45;2.90;;;;;;;13.23;44.95;101952.11;1777676;79;22599;-50
2022/10/16 10:39:05;;;;;;;8.55;3.37;;;;;;;13.29;45.11;101951.23;1740990;80;21034;-48
2022/10/16 10:42:01;;;;;;;7.00;3.40;;;;;;;13.34;44.51;101953.61;1750925;81;21514;-49
2022/10/16 10:44:54;;;;;;;6.67;4.22;;;;;;;13.41;44.28;101946.95;1737106;80;21571;-50
2022/10/16 10:47:52;;;;;;;8.25;4.17;;;;;;;13.49;44.50;101942.48;1694971;81;21010;-51
2022/10/16 10:50:42;;;;;;;8.93;4.10;;;;;;;13.59;44.04;101936.09;1733719;80;21161;-50
2022/10/16 10:53:37;;;;;;;7.08;4.22;;;;;;;13.67;43.81;101939.91;1743434;81;21051;-49
2022/10/16 10:56:49;;;;;;;8.90;4.72;;;;;;;13.72;44.60;101943.56;1738333;80;21939;-49
2022/10/16 10:59:34;;;;;;;8.80;4.50;;;;;;;13.71;44.31;101946.67;1733342;81;21059;-49
2022/10/16 11:02:12;;;;;;;7.12;4.08;;;;;;;13.73;44.55;101938.63;1741923;81;21110;-49
2022/10/16 11:05:15;;;;;;;8.13;4.95;;;;;;;13.76;45.34;101935.78;1734579;81;21474;-47
2022/10/16 11:07:58;;;;;;;10.43;5.12;;;;;;;13.80;45.55;101930.66;1745918;80;21498;-49
2022/10/16 11:10:35;;;;;;;7.72;4.67;;;;;;;13.84;45.49;101932.62;1738344;80;21109;-48
2022/10/16 11:13:25;;;;;;;10.72;4.17;;;;;;;13.88;45.44;101934.92;1743713;80;21088;-49
2022/10/16 11:15:55;;;;;;;8.63;5.35;;;;;;;13.96;45.38;101933.08;1740237;80;21046;-48
2022/10/16 11:18:26;;;;;;;8.03;3.67;;;;;;;14.05;45.08;101928.94;1747817;80;21636;-48
2022/10/16 11:20:59;;;;;;;7.75;3.75;;;;;;;14.09;44.38;101927.78;1735990;81;21077;-48
2022/10/16 11:23:56;;;;;;;6.35;3.60;;;;;;;14.11;43.38;101930.67;1746435;81;21520;-49
2022/10/16 11:26:30;;;;;;;7.42;3.95;;;;;;;14.14;43.36;101942.86;1747535;80;21007;-49
2022/10/16 11:28:59;;;;;;;9.28;4.87;;;;;;;14.21;42.99;101944.11;1727468;81;21093;-49
2022/10/16 11:31:47;;;;;;;9.43;4.53;;;;;;;14.29;42.25;101941.77;1735703;80;21128;-48
2022/10/16 11:34:32;;;;;;;6.95;3.65;;;;;;;14.38;42.16;101932.81;1748096;81;21006;-50
2022/10/16 11:37:19;;;;;;;8.08;3.70;;;;;;;14.48;42.43;101940.45;1752068;80;21189;-48
2022/10/16 11:39:47;;;;;;;6.15;3.55;;;;;;;14.56;42.92;101953.13;1749887;81;21042;-48
2022/10/16 11:42:25;;;;;;;7.53;3.52;;;;;;;14.59;42.98;101957.79;1747525;80;21050;-48
2022/10/16 11:45:08;;;;;;;6.83;3.30;;;;;;;14.61;42.61;101955.87;1756407;80;21058;-49
2022/10/16 11:47:43;;;;;;;6.28;3.42;;;;;;;14.62;42.29;101953.56;1747896;80;21063;-49
2022/10/16 11:50:24;;;;;;;6.28;3.10;;;;;;;14.64;42.26;101956.98;1744904;80;21216;-48
2022/10/16 11:53:32;;;;;;;6.87;2.92;;;;;;;14.67;41.31;101954.08;1742761;80;21434;-48
2022/10/16 11:55:58;;;;;;;9.25;2.90;;;;;;;14.68;41.03;101950.48;1750300;80;21078;-55
2022/10/16 11:58:40;;;;;;;6.37;3.40;;;;;;;14.70;40.73;101945.08;1735115;80;21125;-49
2022/10/16 12:01:31;;;;;;;9.08;5.08;;;;;;;14.77;40.66;101949.45;1744537;80;21541;-48
2022/10/16 12:04:28;;;;;;;9.55;4.10;;;;;;;14.87;40.55;101951.80;1746759;81;21229;-49
2022/10/16 12:07:07;;;;;;;7.55;3.33;;;;;;;14.93;40.18;101950.48;1748771;80;21003;-49
2022/10/16 12:09:37;;;;;;;6.85;3.55;;;;;;;14.97;40.52;101950.16;1732618;80;21137;-48
2022/10/16 12:12:24;;;;;;;6.75;3.35;;;;;;;15.03;40.52;101955.02;1737604;80;21117;-49
2022/10/16 12:15:07;;;;;;;6.70;3.17;;;;;;;15.09;40.34;101947.07;1747044;80;21117;-49
2022/10/16 12:17:37;;;;;;;8.13;3.70;;;;;;;15.17;40.08;101947.84;1733973;80;21224;-49
2022/10/16 12:20:20;;;;;;;7.85;3.85;;;;;;;15.26;39.95;101946.30;1737615;80;21094;-49
2022/10/16 12:22:56;;;;;;;23.52;4.35;;;;;;;15.34;39.53;101947.90;1698874;82;21065;-49
2022/10/16 12:25:33;;;;;;;5.30;2.62;;;;;;;15.42;39.64;101948.17;1690520;83;21094;-49
2022/10/16 12:28:20;;;;;;;8.98;2.95;;;;;;;15.48;39.19;101950.83;1692148;83;21675;-50
2022/10/16 12:30:56;;;;;;;7.65;3.20;;;;;;;15.56;38.95;101949.77;1682031;83;21154;-49
2022/10/16 12:33:36;;;;;;;7.87;3.95;;;;;;;15.64;39.01;101943.88;1690428;84;21055;-50
2022/10/16 12:36:11;;;;;;;8.83;3.98;;;;;;;15.76;38.37;101953.08;1689390;83;21065;-52
2022/10/16 12:38:50;;;;;;;8.35;3.60;;;;;;;16.54;37.51;101938.58;1717611;82;21097;-49
2022/10/16 12:41:29;;;;;;;8.55;3.75;;;;;;;16.67;37.31;101934.45;1725820;80;21126;-48
2022/10/16 12:43:56;;;;;;;10.53;4.62;;;;;;;17.33;37.25;101931.70;1738039;82;21311;-50
2022/10/16 12:46:32;;;;;;;10.32;4.72;;;;;;;18.79;35.64;101934.11;1734079;80;21086;-49
2022/10/16 12:49:15;;;;;;;;;;;;;;;20.22;34.06;101931.51;1742481;80;21051;-49
2022/10/16 12:51:42;;;;;;;12.23;5.08;;;;;;;21.75;31.33;101929.71;1725559;82;20171;-48
2022/10/16 12:54:18;;;;;;;11.03;4.33;;;;;;;23.03;29.55;101930.12;1734228;82;21561;-48
2022/10/16 12:57:32;;;;;;;8.93;4.00;;;;;;;24.01;27.79;101919.26;1741169;80;21173;-49
2022/10/16 13:00:38;;;;;;;7.55;3.37;;;;;;;24.93;26.50;101923.95;1733640;80;21118;-51
2022/10/16 13:03:50;;;;;;;7.28;2.92;;;;;;;25.87;25.31;101926.75;1740846;82;21503;-50
2022/10/16 13:06:31;;;;;;;5.78;2.62;;;;;;;26.52;24.61;101925.08;1725691;81;21094;-49
2022/10/16 13:09:09;;;;;;;10.28;3.08;;;;;;;27.03;24.01;101931.74;1723993;82;21559;-49
2022/10/16 13:12:01;;;;;;;5.45;2.40;;;;;;;27.41;22.99;101931.42;1735315;80;21042;-49
2022/10/16 13:14:57;;;;;;;9.60;3.52;;;;;;;27.29;22.91;101924.08;1737736;82;21054;-49
2022/10/16 13:17:52;;;;;;;12.35;3.67;;;;;;;27.41;22.54;101916.56;1721775;81;21080;-49
2022/10/16 13:20:48;;;;;;;8.30;3.03;;;;;;;27.53;22.34;101911.96;1729238;80;21083;-49
2022/10/16 13:23:44;;;;;;;7.67;3.55;;;;;;;27.74;22.40;101911.87;1706356;82;21067;-50
2022/10/16 13:26:58;;;;;;;6.75;3.47;;;;;;;27.98;21.74;101911.09;1725472;82;25966;-49
2022/10/16 13:29:24;;;;;;;9.33;3.55;;;;;;;27.96;22.07;101909.94;1733278;80;21581;-49
2022/10/16 13:31:51;;;;;;;7.40;3.83;;;;;;;27.89;22.07;101904.13;1720419;81;21031;-50
2022/10/16 13:34:20;;;;;;;9.13;3.42;;;;;;;27.84;21.83;101902.05;1731976;82;21078;-50
2022/10/16 13:36:53;;;;;;;8.13;3.08;;;;;;;27.68;22.07;101897.80;1706038;83;20991;-50
2022/10/16 13:39:27;;;;;;;8.98;3.37;;;;;;;27.63;22.07;101896.73;1745389;80;21814;-50
2022/10/16 13:42:05;;;;;;;7.25;3.75;;;;;;;27.60;22.15;101901.52;1745815;80;21015;-50
2022/10/16 13:44:48;;;;;;;7.92;3.67;;;;;;;27.55;22.04;101896.38;1744193;82;21588;-49
2022/10/16 13:47:24;;;;;;;9.13;3.80;;;;;;;27.52;22.18;101894.91;1745476;80;21738;-49
2022/10/16 13:50:04;;;;;;;6.47;3.98;;;;;;;27.42;21.82;101889.03;1744250;80;21581;-50
2022/10/16 13:52:31;;;;;;;5.80;3.45;;;;;;;27.22;21.99;101892.39;1734271;82;21133;-52
2022/10/16 13:54:57;;;;;;;6.17;3.15;;;;;;;26.97;22.24;101888.47;1747217;80;21071;-50
2022/10/16 13:57:25;;;;;;;6.75;2.67;;;;;;;26.76;22.53;101880.69;1746806;82;21247;-49
2022/10/16 13:59:52;;;;;;;8.98;2.98;;;;;;;26.58;22.69;101882.48;1747009;80;21086;-50
2022/10/16 14:02:34;;;;;;;9.00;2.92;;;;;;;26.53;23.06;101870.08;1747261;80;21019;-49
2022/10/16 14:05:02;;;;;;;5.67;2.60;;;;;;;26.44;22.71;101871.22;1747729;82;21108;-49
2022/10/16 14:07:32;;;;;;;5.50;2.60;;;;;;;26.25;23.07;101868.64;1740516;80;21094;-49
2022/10/16 14:10:25;;;;;;;7.65;2.70;;;;;;;25.98;23.29;101864.29;1744218;82;21549;-49
2022/10/16 14:13:03;;;;;;;5.62;2.30;;;;;;;25.69;23.20;101859.23;1739391;82;21037;-50
2022/10/16 14:15:31;;;;;;;4.72;2.45;;;;;;;24.79;23.98;101868.20;1744748;80;21525;-49
2022/10/16 14:17:58;;;;;;;6.20;2.33;;;;;;;24.08;24.50;101873.69;1745410;82;21134;-49
2022/10/16 14:20:30;;;;;;;5.20;2.30;;;;;;;23.78;25.17;101876.12;1743109;80;21463;-49
2022/10/16 14:23:04;;;;;;;4.97;2.40;;;;;;;23.60;25.94;101872.84;1741798;82;21534;-50
2022/10/16 14:25:32;;;;;;;6.33;3.10;;;;;;;23.43;25.88;101878.25;1736081;80;21124;-49
2022/10/16 14:28:18;;;;;;;5.10;2.15;;;;;;;22.80;26.32;101880.63;1734754;82;21352;-49
2022/10/16 14:30:56;;;;;;;5.70;2.83;;;;;;;22.01;27.08;101884.64;1742136;80;21104;-50
2022/10/16 14:33:36;;;;;;;6.75;3.33;;;;;;;20.97;28.62;101893.01;1741119;82;21106;-49
2022/10/16 14:36:13;;;;;;;6.28;3.30;;;;;;;20.08;30.00;101903.09;1739776;82;21126;-49
2022/10/16 14:38:42;;;;;;;8.05;3.95;;;;;;;19.21;31.34;101905.01;1737001;81;21447;-53
2022/10/16 14:41:08;;;;;;;10.10;3.67;;;;;;;18.52;32.26;101916.11;1733055;80;21567;-49
2022/10/16 14:43:41;;;;;;;7.25;3.87;;;;;;;17.96;33.45;101918.34;1736178;82;21876;-49
2022/10/16 14:46:17;;;;;;;9.78;4.22;;;;;;;17.53;34.73;101923.82;1729184;82;21577;-49
2022/10/16 14:48:46;;;;;;;6.85;3.45;;;;;;;17.11;35.25;101918.49;1735648;80;21047;-49
2022/10/16 14:51:19;;;;;;;11.30;4.40;;;;;;;16.74;36.27;101922.34;1738649;82;21031;-49
2022/10/16 14:53:49;;;;;;;7.35;3.83;;;;;;;16.44;37.00;101924.34;1735055;82;21102;-49
2022/10/16 14:56:21;;;;;;;7.03;3.55;;;;;;;16.16;37.50;101931.38;1739690;82;21115;-49
2022/10/16 14:58:49;;;;;;;5.87;3.33;;;;;;;15.91;38.15;101932.96;1736228;80;21042;-49
2022/10/16 15:01:16;;;;;;;8.13;3.50;;;;;;;15.65;39.02;101937.13;1736253;81;21068;-49
2022/10/16 15:03:43;;;;;;;8.10;3.80;;;;;;;15.36;40.00;101948.13;1735244;82;21011;-49